sensor_id;sensor_type;location;lat;lon;timestamp;pressure;altitude;pressure_sealevel;temperature;humidity
72438;BME280;60444;43.534;-5.674;2022-09-09T00:04:04;101840.25;;;20.60;82.19
72438;BME280;60444;43.534;-5.674;2022-09-09T00:06:42;101860.47;;;20.72;82.95
72438;BME280;60444;43.534;-5.674;2022-09-09T00:09:17;101866.97;;;20.71;82.31
72438;BME280;60444;43.534;-5.674;2022-09-09T00:11:48;101861.56;;;20.69;82.45
72438;BME280;60444;43.534;-5.674;2022-09-09T00:15:01;101853.66;;;20.64;82.43
72438;BME280;60444;43.534;-5.674;2022-09-09T00:20:35;101837.63;;;20.58;82.75
72438;BME280;60444;43.534;-5.674;2022-09-09T00:23:11;101842.91;;;20.61;81.41
72438;BME280;60444;43.534;-5.674;2022-09-09T00:25:50;101836.19;;;20.53;82.03
72438;BME280;60444;43.534;-5.674;2022-09-09T00:28:23;101855.28;;;20.67;81.35
72438;BME280;60444;43.534;-5.674;2022-09-09T00:30:50;101844.00;;;20.59;81.89
72438;BME280;60444;43.534;-5.674;2022-09-09T00:33:20;101831.47;;;20.55;80.31
72438;BME280;60444;43.534;-5.674;2022-09-09T00:35:52;101842.66;;;20.64;82.58
72438;BME280;60444;43.534;-5.674;2022-09-09T00:38:33;101843.44;;;20.67;81.72
72438;BME280;60444;43.534;-5.674;2022-09-09T00:41:17;101835.19;;;20.67;82.34
72438;BME280;60444;43.534;-5.674;2022-09-09T00:44:16;101844.41;;;20.65;81.90
72438;BME280;60444;43.534;-5.674;2022-09-09T00:50:20;101849.38;;;20.60;80.92
72438;BME280;60444;43.534;-5.674;2022-09-09T00:55:28;101834.34;;;20.53;80.67
72438;BME280;60444;43.534;-5.674;2022-09-09T00:57:58;101844.56;;;20.51;81.56
72438;BME280;60444;43.534;-5.674;2022-09-09T01:00:31;101832.59;;;20.52;81.86
72438;BME280;60444;43.534;-5.674;2022-09-09T01:08:01;101845.84;;;20.58;82.96
72438;BME280;60444;43.534;-5.674;2022-09-09T01:10:49;101856.84;;;20.58;81.55
72438;BME280;60444;43.534;-5.674;2022-09-09T01:13:23;101841.28;;;20.46;80.02
72438;BME280;60444;43.534;-5.674;2022-09-09T01:15:50;101857.09;;;20.55;81.93
72438;BME280;60444;43.534;-5.674;2022-09-09T01:18:21;101837.31;;;20.50;81.63
72438;BME280;60444;43.534;-5.674;2022-09-09T01:21:09;101840.06;;;20.50;82.90
72438;BME280;60444;43.534;-5.674;2022-09-09T01:26:46;101845.44;;;20.52;81.33
72438;BME280;60444;43.534;-5.674;2022-09-09T01:29:16;101828.75;;;20.42;80.94
72438;BME280;60444;43.534;-5.674;2022-09-09T01:34:17;101857.78;;;20.46;80.92
72438;BME280;60444;43.534;-5.674;2022-09-09T01:37:10;101837.88;;;20.43;83.16
72438;BME280;60444;43.534;-5.674;2022-09-09T01:39:39;101830.84;;;20.39;82.92
72438;BME280;60444;43.534;-5.674;2022-09-09T01:42:09;101849.09;;;20.52;83.54
72438;BME280;60444;43.534;-5.674;2022-09-09T01:44:36;101851.50;;;20.44;81.22
72438;BME280;60444;43.534;-5.674;2022-09-09T01:47:03;101842.50;;;20.42;82.62
72438;BME280;60444;43.534;-5.674;2022-09-09T01:49:30;101848.53;;;20.47;83.03
72438;BME280;60444;43.534;-5.674;2022-09-09T01:51:56;101849.81;;;20.54;82.82
72438;BME280;60444;43.534;-5.674;2022-09-09T01:54:26;101836.03;;;20.43;82.02
72438;BME280;60444;43.534;-5.674;2022-09-09T01:57:06;101858.97;;;20.55;82.08
72438;BME280;60444;43.534;-5.674;2022-09-09T01:59:49;101846.00;;;20.44;82.31
72438;BME280;60444;43.534;-5.674;2022-09-09T02:02:21;101835.38;;;20.40;81.53
72438;BME280;60444;43.534;-5.674;2022-09-09T02:04:55;101849.75;;;20.43;82.98
72438;BME280;60444;43.534;-5.674;2022-09-09T02:07:39;101856.56;;;20.50;82.71
72438;BME280;60444;43.534;-5.674;2022-09-09T02:10:24;101848.22;;;20.39;82.52
72438;BME280;60444;43.534;-5.674;2022-09-09T02:12:58;101866.03;;;20.46;81.27
72438;BME280;60444;43.534;-5.674;2022-09-09T02:15:31;101860.53;;;20.46;82.74
72438;BME280;60444;43.534;-5.674;2022-09-09T02:17:58;101848.66;;;20.33;81.67
72438;BME280;60444;43.534;-5.674;2022-09-09T02:20:27;101854.81;;;20.37;81.72
72438;BME280;60444;43.534;-5.674;2022-09-09T02:22:59;101861.72;;;20.42;80.27
72438;BME280;60444;43.534;-5.674;2022-09-09T02:25:27;101845.16;;;20.31;81.06
72438;BME280;60444;43.534;-5.674;2022-09-09T02:27:54;101854.94;;;20.35;81.29
72438;BME280;60444;43.534;-5.674;2022-09-09T02:30:20;101843.41;;;20.30;82.41
72438;BME280;60444;43.534;-5.674;2022-09-09T02:32:47;101857.69;;;20.35;82.15
72438;BME280;60444;43.534;-5.674;2022-09-09T02:35:16;101862.75;;;20.41;82.03
72438;BME280;60444;43.534;-5.674;2022-09-09T02:37:44;101857.44;;;20.38;83.23
72438;BME280;60444;43.534;-5.674;2022-09-09T02:40:14;101867.34;;;20.41;81.42
72438;BME280;60444;43.534;-5.674;2022-09-09T02:42:45;101862.50;;;20.44;82.62
72438;BME280;60444;43.534;-5.674;2022-09-09T02:45:15;101867.00;;;20.45;82.36
72438;BME280;60444;43.534;-5.674;2022-09-09T02:47:50;101866.25;;;20.43;82.46
72438;BME280;60444;43.534;-5.674;2022-09-09T02:50:18;101861.50;;;20.45;83.18
72438;BME280;60444;43.534;-5.674;2022-09-09T02:55:47;101861.06;;;20.39;79.99
72438;BME280;60444;43.534;-5.674;2022-09-09T02:58:17;101857.34;;;20.40;82.27
72438;BME280;60444;43.534;-5.674;2022-09-09T03:00:48;101861.63;;;20.44;82.36
72438;BME280;60444;43.534;-5.674;2022-09-09T03:03:15;101856.13;;;20.44;83.38
72438;BME280;60444;43.534;-5.674;2022-09-09T03:05:41;101855.47;;;20.40;82.39
72438;BME280;60444;43.534;-5.674;2022-09-09T03:08:07;101846.69;;;20.35;82.06
72438;BME280;60444;43.534;-5.674;2022-09-09T03:10:35;101860.84;;;20.42;81.35
72438;BME280;60444;43.534;-5.674;2022-09-09T03:13:02;101846.81;;;20.34;81.08
72438;BME280;60444;43.534;-5.674;2022-09-09T03:15:31;101863.59;;;20.42;82.15
72438;BME280;60444;43.534;-5.674;2022-09-09T03:17:57;101862.75;;;20.41;81.71
72438;BME280;60444;43.534;-5.674;2022-09-09T03:20:24;101840.13;;;20.25;79.67
72438;BME280;60444;43.534;-5.674;2022-09-09T03:22:52;101849.44;;;20.35;81.64
72438;BME280;60444;43.534;-5.674;2022-09-09T03:25:17;101854.50;;;20.41;81.43
72438;BME280;60444;43.534;-5.674;2022-09-09T03:27:44;101848.66;;;20.33;81.90
72438;BME280;60444;43.534;-5.674;2022-09-09T03:30:10;101849.19;;;20.38;82.71
72438;BME280;60444;43.534;-5.674;2022-09-09T03:32:36;101855.25;;;20.43;82.36
72438;BME280;60444;43.534;-5.674;2022-09-09T03:35:03;101851.19;;;20.36;80.58
72438;BME280;60444;43.534;-5.674;2022-09-09T03:37:29;101848.34;;;20.38;80.91
72438;BME280;60444;43.534;-5.674;2022-09-09T03:39:54;101843.63;;;20.40;82.58
72438;BME280;60444;43.534;-5.674;2022-09-09T03:42:20;101850.31;;;20.36;79.01
72438;BME280;60444;43.534;-5.674;2022-09-09T03:44:47;101854.59;;;20.40;81.52
72438;BME280;60444;43.534;-5.674;2022-09-09T03:47:20;101848.09;;;20.41;81.03
72438;BME280;60444;43.534;-5.674;2022-09-09T03:49:47;101837.00;;;20.30;79.92
72438;BME280;60444;43.534;-5.674;2022-09-09T03:52:14;101851.94;;;20.38;81.22
72438;BME280;60444;43.534;-5.674;2022-09-09T03:54:40;101844.94;;;20.34;80.50
72438;BME280;60444;43.534;-5.674;2022-09-09T03:57:08;101839.22;;;20.37;81.69
72438;BME280;60444;43.534;-5.674;2022-09-09T03:59:34;101829.66;;;20.30;81.77
72438;BME280;60444;43.534;-5.674;2022-09-09T04:02:00;101845.25;;;20.42;82.10
72438;BME280;60444;43.534;-5.674;2022-09-09T04:04:26;101832.41;;;20.30;80.63
72438;BME280;60444;43.534;-5.674;2022-09-09T04:06:53;101847.34;;;20.39;81.25
72438;BME280;60444;43.534;-5.674;2022-09-09T04:09:18;101840.94;;;20.38;81.75
72438;BME280;60444;43.534;-5.674;2022-09-09T04:11:45;101828.66;;;20.31;81.42
72438;BME280;60444;43.534;-5.674;2022-09-09T04:14:11;101842.94;;;20.36;80.41
72438;BME280;60444;43.534;-5.674;2022-09-09T04:16:38;101831.53;;;20.30;80.48
72438;BME280;60444;43.534;-5.674;2022-09-09T04:19:04;101843.69;;;20.38;81.30
72438;BME280;60444;43.534;-5.674;2022-09-09T04:21:32;101839.88;;;20.28;82.26
72438;BME280;60444;43.534;-5.674;2022-09-09T04:23:57;101829.78;;;20.29;82.14
72438;BME280;60444;43.534;-5.674;2022-09-09T04:26:23;101829.84;;;20.27;80.94
72438;BME280;60444;43.534;-5.674;2022-09-09T04:28:48;101844.06;;;20.34;81.36
72438;BME280;60444;43.534;-5.674;2022-09-09T04:31:22;101834.38;;;20.28;77.26
72438;BME280;60444;43.534;-5.674;2022-09-09T04:33:52;101830.88;;;20.26;81.63
72438;BME280;60444;43.534;-5.674;2022-09-09T04:36:18;101847.56;;;20.36;81.29
72438;BME280;60444;43.534;-5.674;2022-09-09T04:38:45;101846.69;;;20.35;82.44
72438;BME280;60444;43.534;-5.674;2022-09-09T04:41:11;101854.81;;;20.37;81.91
72438;BME280;60444;43.534;-5.674;2022-09-09T04:43:37;101851.94;;;20.38;81.95
72438;BME280;60444;43.534;-5.674;2022-09-09T04:46:04;101841.63;;;20.29;81.07
72438;BME280;60444;43.534;-5.674;2022-09-09T04:48:30;101843.41;;;20.30;82.17
72438;BME280;60444;43.534;-5.674;2022-09-09T04:51:05;101841.63;;;20.29;81.92
72438;BME280;60444;43.534;-5.674;2022-09-09T04:53:32;101847.34;;;20.26;78.30
72438;BME280;60444;43.534;-5.674;2022-09-09T04:56:08;101827.22;;;20.13;77.83
72438;BME280;60444;43.534;-5.674;2022-09-09T04:58:35;101855.94;;;20.22;77.82
72438;BME280;60444;43.534;-5.674;2022-09-09T05:01:28;101846.44;;;20.13;78.20
72438;BME280;60444;43.534;-5.674;2022-09-09T05:03:53;101843.38;;;20.05;78.13
72438;BME280;60444;43.534;-5.674;2022-09-09T05:06:21;101853.50;;;20.05;77.55
72438;BME280;60444;43.534;-5.674;2022-09-09T05:08:47;101864.25;;;20.08;77.01
72438;BME280;60444;43.534;-5.674;2022-09-09T05:11:19;101864.59;;;20.03;77.34
72438;BME280;60444;43.534;-5.674;2022-09-09T05:13:46;101853.25;;;19.95;77.71
72438;BME280;60444;43.534;-5.674;2022-09-09T05:16:13;101856.59;;;20.00;78.38
72438;BME280;60444;43.534;-5.674;2022-09-09T05:18:40;101860.72;;;19.93;76.86
72438;BME280;60444;43.534;-5.674;2022-09-09T05:21:06;101872.84;;;20.03;77.95
72438;BME280;60444;43.534;-5.674;2022-09-09T05:23:34;101867.75;;;19.97;76.08
72438;BME280;60444;43.534;-5.674;2022-09-09T05:26:00;101863.28;;;19.96;76.44
72438;BME280;60444;43.534;-5.674;2022-09-09T05:28:27;101875.69;;;20.02;79.41
72438;BME280;60444;43.534;-5.674;2022-09-09T05:31:00;101872.47;;;19.95;76.93
72438;BME280;60444;43.534;-5.674;2022-09-09T05:33:29;101881.06;;;20.03;78.97
72438;BME280;60444;43.534;-5.674;2022-09-09T05:35:56;101868.09;;;19.93;75.96
72438;BME280;60444;43.534;-5.674;2022-09-09T05:38:22;101854.13;;;19.83;77.29
72438;BME280;60444;43.534;-5.674;2022-09-09T05:40:50;101849.66;;;19.82;78.07
72438;BME280;60444;43.534;-5.674;2022-09-09T05:43:18;101866.44;;;19.90;77.31
72438;BME280;60444;43.534;-5.674;2022-09-09T05:45:47;101865.66;;;19.88;80.81
72438;BME280;60444;43.534;-5.674;2022-09-09T05:48:14;101877.88;;;19.97;79.82
72438;BME280;60444;43.534;-5.674;2022-09-09T05:50:42;101879.28;;;20.02;81.46
72438;BME280;60444;43.534;-5.674;2022-09-09T05:53:08;101878.63;;;19.99;79.36
72438;BME280;60444;43.534;-5.674;2022-09-09T05:55:37;101886.44;;;20.05;80.36
72438;BME280;60444;43.534;-5.674;2022-09-09T05:58:03;101887.53;;;20.02;78.98
72438;BME280;60444;43.534;-5.674;2022-09-09T06:00:29;101880.06;;;20.04;81.71
72438;BME280;60444;43.534;-5.674;2022-09-09T06:02:56;101888.78;;;19.98;79.34
72438;BME280;60444;43.534;-5.674;2022-09-09T06:05:22;101873.50;;;19.94;78.60
72438;BME280;60444;43.534;-5.674;2022-09-09T06:07:52;101887.78;;;19.99;79.49
72438;BME280;60444;43.534;-5.674;2022-09-09T06:10:17;101880.06;;;20.04;81.21
72438;BME280;60444;43.534;-5.674;2022-09-09T06:12:43;101887.34;;;20.05;81.57
72438;BME280;60444;43.534;-5.674;2022-09-09T06:15:09;101893.03;;;20.02;77.51
72438;BME280;60444;43.534;-5.674;2022-09-09T06:17:34;101890.41;;;20.01;80.64
72438;BME280;60444;43.534;-5.674;2022-09-09T06:20:00;101892.38;;;20.11;81.78
72438;BME280;60444;43.534;-5.674;2022-09-09T06:22:25;101897.31;;;20.06;76.74
72438;BME280;60444;43.534;-5.674;2022-09-09T06:24:51;101873.38;;;19.96;76.66
72438;BME280;60444;43.534;-5.674;2022-09-09T06:27:16;101887.53;;;20.02;80.41
72438;BME280;60444;43.534;-5.674;2022-09-09T06:29:42;101899.19;;;20.06;80.34
72438;BME280;60444;43.534;-5.674;2022-09-09T06:32:07;101895.69;;;20.04;81.31
72438;BME280;60444;43.534;-5.674;2022-09-09T06:34:34;101890.50;;;19.99;76.06
72438;BME280;60444;43.534;-5.674;2022-09-09T06:37:00;101903.59;;;20.08;78.88
72438;BME280;60444;43.534;-5.674;2022-09-09T06:39:26;101908.09;;;20.09;80.79
72438;BME280;60444;43.534;-5.674;2022-09-09T06:41:51;101891.50;;;19.98;81.52
72438;BME280;60444;43.534;-5.674;2022-09-09T06:44:19;101916.91;;;20.14;80.39
72438;BME280;60444;43.534;-5.674;2022-09-09T06:46:45;101911.59;;;20.11;80.54
72438;BME280;60444;43.534;-5.674;2022-09-09T06:49:13;101924.06;;;20.17;81.80
72438;BME280;60444;43.534;-5.674;2022-09-09T06:51:39;101920.34;;;20.18;81.25
72438;BME280;60444;43.534;-5.674;2022-09-09T06:54:08;101911.59;;;20.11;81.71
72438;BME280;60444;43.534;-5.674;2022-09-09T06:56:38;101932.13;;;20.20;81.52
72438;BME280;60444;43.534;-5.674;2022-09-09T06:59:06;101926.50;;;20.21;81.16
72438;BME280;60444;43.534;-5.674;2022-09-09T07:01:39;101918.56;;;20.17;81.22
72438;BME280;60444;43.534;-5.674;2022-09-09T07:04:07;101928.47;;;20.19;82.09
72438;BME280;60444;43.534;-5.674;2022-09-09T07:06:36;101919.47;;;20.17;81.60
72438;BME280;60444;43.534;-5.674;2022-09-09T07:09:04;101926.94;;;20.28;81.72
72438;BME280;60444;43.534;-5.674;2022-09-09T07:11:33;101907.59;;;20.17;82.01
72438;BME280;60444;43.534;-5.674;2022-09-09T07:14:00;101938.81;;;20.28;80.79
72438;BME280;60444;43.534;-5.674;2022-09-09T07:16:26;101934.22;;;20.29;80.97
72438;BME280;60444;43.534;-5.674;2022-09-09T07:18:56;101938.69;;;20.30;80.40
72438;BME280;60444;43.534;-5.674;2022-09-09T07:21:27;101931.66;;;20.26;82.02
72438;BME280;60444;43.534;-5.674;2022-09-09T07:23:53;101918.56;;;20.17;78.69
72438;BME280;60444;43.534;-5.674;2022-09-09T07:26:21;101917.69;;;20.16;81.68
72438;BME280;60444;43.534;-5.674;2022-09-09T07:28:48;101940.56;;;20.29;81.58
72438;BME280;60444;43.534;-5.674;2022-09-09T07:31:19;101930.88;;;20.24;81.00
72438;BME280;60444;43.534;-5.674;2022-09-09T07:33:46;101924.94;;;20.17;80.08
72438;BME280;60444;43.534;-5.674;2022-09-09T07:36:17;101933.44;;;20.27;82.16
72438;BME280;60444;43.534;-5.674;2022-09-09T07:38:45;101943.22;;;20.31;81.97
72438;BME280;60444;43.534;-5.674;2022-09-09T07:41:35;101924.19;;;20.28;81.85
72438;BME280;60444;43.534;-5.674;2022-09-09T07:44:12;101926.75;;;20.31;81.87
72438;BME280;60444;43.534;-5.674;2022-09-09T07:46:39;101942.34;;;20.30;81.48
72438;BME280;60444;43.534;-5.674;2022-09-09T07:49:05;101925.19;;;20.27;81.68
72438;BME280;60444;43.534;-5.674;2022-09-09T07:51:35;101943.88;;;20.34;81.13
72438;BME280;60444;43.534;-5.674;2022-09-09T07:54:04;101927.81;;;20.28;82.14
72438;BME280;60444;43.534;-5.674;2022-09-09T07:56:30;101928.59;;;20.30;81.91
72438;BME280;60444;43.534;-5.674;2022-09-09T07:58:57;101939.25;;;20.35;82.76
72438;BME280;60444;43.534;-5.674;2022-09-09T08:01:29;101957.06;;;20.42;81.99
72438;BME280;60444;43.534;-5.674;2022-09-09T08:06:26;101939.59;;;20.43;81.95
72438;BME280;60444;43.534;-5.674;2022-09-09T08:08:52;101945.97;;;20.43;81.83
72438;BME280;60444;43.534;-5.674;2022-09-09T08:11:23;101934.19;;;20.41;81.83
72438;BME280;60444;43.534;-5.674;2022-09-09T08:13:50;101947.41;;;20.49;80.91
72438;BME280;60444;43.534;-5.674;2022-09-09T08:16:22;101936.50;;;20.47;82.06
72438;BME280;60444;43.534;-5.674;2022-09-09T08:18:51;101945.50;;;20.49;81.74
72438;BME280;60444;43.534;-5.674;2022-09-09T08:21:26;101935.72;;;20.45;81.42
72438;BME280;60444;43.534;-5.674;2022-09-09T08:23:54;101933.75;;;20.47;81.02
72438;BME280;60444;43.534;-5.674;2022-09-09T08:26:31;101941.00;;;20.48;81.80
72438;BME280;60444;43.534;-5.674;2022-09-09T08:28:58;101953.31;;;20.55;78.98
72438;BME280;60444;43.534;-5.674;2022-09-09T08:31:25;101949.38;;;20.59;80.74
72438;BME280;60444;43.534;-5.674;2022-09-09T08:33:51;101953.31;;;20.55;80.75
72438;BME280;60444;43.534;-5.674;2022-09-09T08:36:19;101930.56;;;20.53;81.33
72438;BME280;60444;43.534;-5.674;2022-09-09T08:38:50;101949.25;;;20.61;81.55
72438;BME280;60444;43.534;-5.674;2022-09-09T08:56:02;101968.25;;;20.77;78.78
72438;BME280;60444;43.534;-5.674;2022-09-09T08:58:33;101951.34;;;20.70;79.59
72438;BME280;60444;43.534;-5.674;2022-09-09T09:09:02;101962.31;;;20.83;73.54
72438;BME280;60444;43.534;-5.674;2022-09-09T09:11:38;101962.09;;;20.86;73.32
72438;BME280;60444;43.534;-5.674;2022-09-09T09:14:17;101959.22;;;20.87;73.24
72438;BME280;60444;43.534;-5.674;2022-09-09T09:16:58;101971.53;;;20.94;74.29
72438;BME280;60444;43.534;-5.674;2022-09-09T09:19:24;101968.88;;;20.93;73.18
72438;BME280;60444;43.534;-5.674;2022-09-09T09:28:02;101975.94;;;20.97;75.10
72438;BME280;60444;43.534;-5.674;2022-09-09T09:30:14;101990.56;;;21.10;74.43
72438;BME280;60444;43.534;-5.674;2022-09-09T09:32:44;101970.22;;;21.00;75.65
72438;BME280;60444;43.534;-5.674;2022-09-09T09:35:13;101984.31;;;21.08;71.49
72438;BME280;60444;43.534;-5.674;2022-09-09T09:37:41;101979.91;;;21.05;71.03
72438;BME280;60444;43.534;-5.674;2022-09-09T09:40:20;101989.38;;;21.14;71.32
72438;BME280;60444;43.534;-5.674;2022-09-09T09:42:56;101992.66;;;21.19;71.12
72438;BME280;60444;43.534;-5.674;2022-09-09T09:48:04;102000.00;;;21.18;71.17
72438;BME280;60444;43.534;-5.674;2022-09-09T09:50:32;101997.16;;;21.20;71.70
72438;BME280;60444;43.534;-5.674;2022-09-09T09:53:03;101994.31;;;21.09;70.36
72438;BME280;60444;43.534;-5.674;2022-09-09T09:55:33;101998.47;;;21.14;69.50
72438;BME280;60444;43.534;-5.674;2022-09-09T09:58:13;101999.81;;;21.09;69.01
72438;BME280;60444;43.534;-5.674;2022-09-09T10:00:48;101987.28;;;21.05;69.39
72438;BME280;60444;43.534;-5.674;2022-09-09T10:03:24;102004.75;;;21.16;69.38
72438;BME280;60444;43.534;-5.674;2022-09-09T10:05:50;101994.63;;;21.17;70.15
72438;BME280;60444;43.534;-5.674;2022-09-09T10:08:17;101989.91;;;21.19;70.04
72438;BME280;60444;43.534;-5.674;2022-09-09T10:11:12;102003.88;;;21.28;69.37
72438;BME280;60444;43.534;-5.674;2022-09-09T10:19:32;102003.81;;;21.41;68.83
72438;BME280;60444;43.534;-5.674;2022-09-09T10:22:32;102007.88;;;21.48;70.85
72438;BME280;60444;43.534;-5.674;2022-09-09T10:26:19;102008.50;;;21.51;67.38
72438;BME280;60444;43.534;-5.674;2022-09-09T10:36:26;101995.78;;;21.61;65.36
72438;BME280;60444;43.534;-5.674;2022-09-09T10:39:18;102000.97;;;21.66;63.97
72438;BME280;60444;43.534;-5.674;2022-09-09T10:47:16;102009.84;;;21.82;63.10
72438;BME280;60444;43.534;-5.674;2022-09-09T10:52:33;102012.34;;;21.85;62.39
72438;BME280;60444;43.534;-5.674;2022-09-09T10:55:16;102008.13;;;21.92;62.92
72438;BME280;60444;43.534;-5.674;2022-09-09T10:57:46;102000.38;;;21.97;63.03
72438;BME280;60444;43.534;-5.674;2022-09-09T11:02:55;101995.63;;;21.99;63.78
72438;BME280;60444;43.534;-5.674;2022-09-09T11:05:34;101989.25;;;21.99;64.39
72438;BME280;60444;43.534;-5.674;2022-09-09T11:08:09;101995.63;;;21.99;67.52
72438;BME280;60444;43.534;-5.674;2022-09-09T11:21:42;102014.22;;;21.85;67.60
72438;BME280;60444;43.534;-5.674;2022-09-09T11:24:39;102019.63;;;21.86;69.97
72438;BME280;60444;43.534;-5.674;2022-09-09T11:27:15;102008.06;;;21.81;68.94
72438;BME280;60444;43.534;-5.674;2022-09-09T11:38:18;101996.88;;;21.72;68.41
72438;BME280;60444;43.534;-5.674;2022-09-09T11:40:45;101989.69;;;21.69;68.88
72438;BME280;60444;43.534;-5.674;2022-09-09T11:43:15;101997.38;;;21.77;68.82
72438;BME280;60444;43.534;-5.674;2022-09-09T11:45:51;101996.31;;;21.66;69.15
72438;BME280;60444;43.534;-5.674;2022-09-09T11:48:29;102016.16;;;21.72;69.65
72438;BME280;60444;43.534;-5.674;2022-09-09T11:50:58;101984.91;;;21.60;68.18
72438;BME280;60444;43.534;-5.674;2022-09-09T11:53:24;101978.63;;;21.58;68.36
72438;BME280;60444;43.534;-5.674;2022-09-09T11:56:08;102010.72;;;21.70;69.09
72438;BME280;60444;43.534;-5.674;2022-09-09T11:58:40;102014.91;;;21.76;69.59
72438;BME280;60444;43.534;-5.674;2022-09-09T12:01:28;102012.84;;;21.66;68.39
72438;BME280;60444;43.534;-5.674;2022-09-09T12:09:38;102013.59;;;21.68;68.25
72438;BME280;60444;43.534;-5.674;2022-09-09T12:14:55;102021.00;;;21.68;68.67
72438;BME280;60444;43.534;-5.674;2022-09-09T12:17:25;102009.88;;;21.70;68.12
72438;BME280;60444;43.534;-5.674;2022-09-09T12:30:48;102016.03;;;21.73;70.82
72438;BME280;60444;43.534;-5.674;2022-09-09T12:33:17;102018.78;;;21.73;70.48
72438;BME280;60444;43.534;-5.674;2022-09-09T12:35:47;101991.41;;;21.59;68.81
72438;BME280;60444;43.534;-5.674;2022-09-09T12:38:26;102009.00;;;21.69;69.46
72438;BME280;60444;43.534;-5.674;2022-09-09T12:40:56;102016.47;;;21.67;70.27
72438;BME280;60444;43.534;-5.674;2022-09-09T12:43:25;102023.09;;;21.64;71.16
72438;BME280;60444;43.534;-5.674;2022-09-09T12:46:00;101999.88;;;21.56;70.49
72438;BME280;60444;43.534;-5.674;2022-09-09T12:48:36;102011.09;;;21.65;71.69
72438;BME280;60444;43.534;-5.674;2022-09-09T12:51:03;102005.34;;;21.68;71.62
72438;BME280;60444;43.534;-5.674;2022-09-09T12:53:36;102014.81;;;21.77;71.10
72438;BME280;60444;43.534;-5.674;2022-09-09T12:56:08;102016.47;;;21.80;70.71
72438;BME280;60444;43.534;-5.674;2022-09-09T12:58:44;102005.00;;;21.73;70.48
72438;BME280;60444;43.534;-5.674;2022-09-09T13:01:20;102007.63;;;21.75;70.98
72438;BME280;60444;43.534;-5.674;2022-09-09T13:03:47;102001.13;;;21.76;70.72
72438;BME280;60444;43.534;-5.674;2022-09-09T13:06:24;101998.50;;;21.74;69.65
72438;BME280;60444;43.534;-5.674;2022-09-09T13:08:51;102004.53;;;21.79;67.21
72438;BME280;60444;43.534;-5.674;2022-09-09T13:11:39;102001.25;;;21.74;69.61
72438;BME280;60444;43.534;-5.674;2022-09-09T13:14:04;102006.53;;;21.77;71.07
72438;BME280;60444;43.534;-5.674;2022-09-09T13:16:33;102019.97;;;21.82;71.69
72438;BME280;60444;43.534;-5.674;2022-09-09T13:19:10;102014.25;;;21.72;72.74
72438;BME280;60444;43.534;-5.674;2022-09-09T13:21:39;102015.56;;;21.79;73.17
72438;BME280;60444;43.534;-5.674;2022-09-09T13:27:51;102012.47;;;21.84;74.08
72438;BME280;60444;43.534;-5.674;2022-09-09T13:30:22;102002.41;;;21.95;73.91
72438;BME280;60444;43.534;-5.674;2022-09-09T13:33:17;102015.69;;;22.01;73.57
72438;BME280;60444;43.534;-5.674;2022-09-09T13:38:15;102002.41;;;21.95;72.20
72438;BME280;60444;43.534;-5.674;2022-09-09T13:40:54;101999.28;;;22.00;71.35
72438;BME280;60444;43.534;-5.674;2022-09-09T13:43:23;102002.41;;;22.06;70.23
72438;BME280;60444;43.534;-5.674;2022-09-09T13:46:00;102008.56;;;22.10;71.18
72438;BME280;60444;43.534;-5.674;2022-09-09T13:48:27;102019.13;;;22.16;70.82
72438;BME280;60444;43.534;-5.674;2022-09-09T13:51:03;101992.91;;;22.10;70.86
72438;BME280;60444;43.534;-5.674;2022-09-09T13:53:32;101998.34;;;22.23;70.82
72438;BME280;60444;43.534;-5.674;2022-09-09T13:55:58;102011.53;;;22.30;70.55
72438;BME280;60444;43.534;-5.674;2022-09-09T13:58:25;102003.75;;;22.35;70.23
72438;BME280;60444;43.534;-5.674;2022-09-09T14:00:52;102003.53;;;22.38;70.27
72438;BME280;60444;43.534;-5.674;2022-09-09T14:03:18;101982.44;;;22.26;69.53
72438;BME280;60444;43.534;-5.674;2022-09-09T14:05:45;101986.25;;;22.36;70.33
72438;BME280;60444;43.534;-5.674;2022-09-09T14:08:16;102007.69;;;22.44;69.74
72438;BME280;60444;43.534;-5.674;2022-09-09T14:10:43;101972.16;;;22.28;69.28
72438;BME280;60444;43.534;-5.674;2022-09-09T14:13:09;101984.34;;;22.37;69.68
72438;BME280;60444;43.534;-5.674;2022-09-09T14:15:34;101994.63;;;22.46;69.16
72438;BME280;60444;43.534;-5.674;2022-09-09T14:18:00;101998.16;;;22.48;68.68
72438;BME280;60444;43.534;-5.674;2022-09-09T14:20:25;102005.31;;;22.50;68.62
72438;BME280;60444;43.534;-5.674;2022-09-09T14:22:51;101993.28;;;22.51;67.72
72438;BME280;60444;43.534;-5.674;2022-09-09T14:25:18;101996.59;;;22.56;68.46
72438;BME280;60444;43.534;-5.674;2022-09-09T14:27:44;101984.16;;;22.51;68.86
72438;BME280;60444;43.534;-5.674;2022-09-09T14:30:11;101978.72;;;22.49;68.58
72438;BME280;60444;43.534;-5.674;2022-09-09T14:32:37;101998.97;;;22.61;69.28
72438;BME280;60444;43.534;-5.674;2022-09-09T14:35:03;101989.06;;;22.58;69.24
72438;BME280;60444;43.534;-5.674;2022-09-09T14:37:28;101994.09;;;22.64;68.83
72438;BME280;60444;43.534;-5.674;2022-09-09T14:39:56;101967.69;;;22.49;68.20
72438;BME280;60444;43.534;-5.674;2022-09-09T14:42:22;101986.41;;;22.57;68.28
72438;BME280;60444;43.534;-5.674;2022-09-09T14:44:48;102001.25;;;22.67;68.70
72438;BME280;60444;43.534;-5.674;2022-09-09T14:47:14;101997.59;;;22.67;68.21
72438;BME280;60444;43.534;-5.674;2022-09-09T14:49:39;101972.38;;;22.71;68.98
72438;BME280;60444;43.534;-5.674;2022-09-09T14:52:05;101979.56;;;22.74;69.20
72438;BME280;60444;43.534;-5.674;2022-09-09T14:54:31;101971.28;;;22.74;67.72
72438;BME280;60444;43.534;-5.674;2022-09-09T14:56:58;101974.66;;;22.77;67.99
72438;BME280;60444;43.534;-5.674;2022-09-09T14:59:23;101972.53;;;22.81;67.74
72438;BME280;60444;43.534;-5.674;2022-09-09T15:01:49;101966.13;;;22.80;67.61
72438;BME280;60444;43.534;-5.674;2022-09-09T15:04:15;101962.38;;;22.81;67.11
72438;BME280;60444;43.534;-5.674;2022-09-09T15:06:42;101964.38;;;22.79;66.25